FWV10 LGSK-LDDU
Flight info
| Callsign | FWV10 |
|---|---|
| Flight time | 1h 2m |
| Altitude | 30000 |
| Route | IBIDI UL617 TSL UN130 TALAS DCT MAVAR DCT RETRA DCT MOKUN |
| Aircraft | A320/M-SDE3FGHIRWY/LB1 |
Departure
| Time | 2026-05-07 14:45 |
|---|---|
| Airport | Skiathos Island National Airport (LGSK) |
Arrival
| Time | 2026-05-07 15:47 |
|---|---|
| Airport | Dubrovnik Ruđer Bošković Airport (LDDU) |
| Time | Latitude | Longitude | Altitude | Speed | Heading |
|---|---|---|---|---|---|
| 2026-05-07 14:35 | 39.17950 | 23.50254 | 39 ft | 0 kts | 289° |
| 2026-05-07 14:39 | 39.17946 | 23.50266 | 39 ft | 4 kts | 287° |
| 2026-05-07 14:39 | 39.17940 | 23.50300 | 39 ft | 4 kts | 276° |
| 2026-05-07 14:39 | 39.17940 | 23.50333 | 39 ft | 4 kts | 251° |
| 2026-05-07 14:40 | 39.17952 | 23.50355 | 37 ft | 2 kts | 199° |
| 2026-05-07 14:40 | 39.17957 | 23.50357 | 38 ft | 0 kts | 199° |
| 2026-05-07 14:41 | 39.17933 | 23.50347 | 37 ft | 13 kts | 199° |
| 2026-05-07 14:41 | 39.17808 | 23.50291 | 39 ft | 21 kts | 199° |
| 2026-05-07 14:42 | 39.17678 | 23.50244 | 39 ft | 18 kts | 197° |
| 2026-05-07 14:42 | 39.17601 | 23.50214 | 39 ft | 0 kts | 180° |
| 2026-05-07 14:42 | 39.17572 | 23.50249 | 39 ft | 8 kts | 129° |
| 2026-05-07 14:43 | 39.17516 | 23.50279 | 40 ft | 14 kts | 190° |
| 2026-05-07 14:43 | 39.17404 | 23.50231 | 37 ft | 18 kts | 199° |
| 2026-05-07 14:43 | 39.17278 | 23.50174 | 27 ft | 21 kts | 199° |
| 2026-05-07 14:43 | 39.17132 | 23.50108 | 20 ft | 23 kts | 199° |
| 2026-05-07 14:44 | 39.17039 | 23.50043 | 12 ft | 11 kts | 193° |
| 2026-05-07 14:44 | 39.17031 | 23.50069 | 12 ft | 1 kts | 14° |
| 2026-05-07 14:44 | 39.17111 | 23.50090 | 19 ft | 43 kts | 14° |
| 2026-05-07 14:44 | 39.17658 | 23.50343 | 40 ft | 121 kts | 19° |
| 2026-05-07 14:45 | 39.18627 | 23.50780 | 312 ft | 160 kts | 19° |
| 2026-05-07 14:45 | 39.19701 | 23.51273 | 1022 ft | 166 kts | 20° |
| 2026-05-07 14:45 | 39.20792 | 23.51755 | 1950 ft | 168 kts | 18° |
| 2026-05-07 14:45 | 39.21978 | 23.51874 | 2423 ft | 181 kts | 349° |
| 2026-05-07 14:46 | 39.23296 | 23.51581 | 2692 ft | 204 kts | 354° |
| 2026-05-07 14:46 | 39.24798 | 23.51447 | 2980 ft | 229 kts | 356° |
| 2026-05-07 14:46 | 39.26473 | 23.51350 | 3368 ft | 253 kts | 355° |
| 2026-05-07 14:46 | 39.28221 | 23.50799 | 3940 ft | 265 kts | 332° |
| 2026-05-07 14:47 | 39.29807 | 23.49551 | 4783 ft | 269 kts | 326° |
| 2026-05-07 14:47 | 39.31383 | 23.48218 | 5620 ft | 273 kts | 325° |
| 2026-05-07 14:47 | 39.32974 | 23.46853 | 6497 ft | 276 kts | 324° |
| 2026-05-07 14:47 | 39.34579 | 23.45468 | 7341 ft | 278 kts | 324° |
| 2026-05-07 14:48 | 39.36190 | 23.44077 | 8224 ft | 279 kts | 324° |
| 2026-05-07 14:48 | 39.37811 | 23.42682 | 9111 ft | 281 kts | 324° |
| 2026-05-07 14:48 | 39.39449 | 23.41272 | 9967 ft | 283 kts | 323° |
| 2026-05-07 14:48 | 39.41103 | 23.39844 | 10588 ft | 293 kts | 323° |
| 2026-05-07 14:49 | 39.42864 | 23.38315 | 10810 ft | 316 kts | 323° |
| 2026-05-07 14:49 | 39.44622 | 23.36482 | 11082 ft | 332 kts | 311° |
| 2026-05-07 14:49 | 39.46232 | 23.34298 | 11700 ft | 338 kts | 311° |
| 2026-05-07 14:49 | 39.47863 | 23.32092 | 12438 ft | 340 kts | 311° |
| 2026-05-07 14:50 | 39.49502 | 23.29878 | 13203 ft | 341 kts | 311° |
| 2026-05-07 14:50 | 39.51146 | 23.27652 | 13962 ft | 343 kts | 310° |
| 2026-05-07 14:50 | 39.52772 | 23.25442 | 14608 ft | 345 kts | 310° |
| 2026-05-07 14:50 | 39.54433 | 23.23183 | 15235 ft | 347 kts | 310° |
| 2026-05-07 14:51 | 39.56109 | 23.20901 | 15846 ft | 350 kts | 310° |
| 2026-05-07 14:51 | 39.57796 | 23.18600 | 16451 ft | 353 kts | 310° |
| 2026-05-07 14:51 | 39.59496 | 23.16279 | 17044 ft | 356 kts | 310° |
| 2026-05-07 14:51 | 39.61213 | 23.13933 | 17647 ft | 360 kts | 310° |
| 2026-05-07 14:52 | 39.62943 | 23.11573 | 18251 ft | 362 kts | 310° |
| 2026-05-07 14:52 | 39.64684 | 23.09194 | 18769 ft | 365 kts | 310° |
| 2026-05-07 14:52 | 39.66439 | 23.06795 | 19213 ft | 369 kts | 310° |
| 2026-05-07 14:52 | 39.68219 | 23.04358 | 19688 ft | 372 kts | 310° |
| 2026-05-07 14:53 | 39.70009 | 23.01899 | 20145 ft | 376 kts | 310° |
| 2026-05-07 14:53 | 39.71791 | 22.99449 | 20608 ft | 379 kts | 310° |
| 2026-05-07 14:53 | 39.73610 | 22.96948 | 21069 ft | 382 kts | 310° |
| 2026-05-07 14:53 | 39.75445 | 22.94428 | 21513 ft | 385 kts | 310° |
| 2026-05-07 14:54 | 39.77298 | 22.91885 | 21949 ft | 389 kts | 310° |
| 2026-05-07 14:54 | 39.79164 | 22.89319 | 22387 ft | 392 kts | 310° |
| 2026-05-07 14:54 | 39.81039 | 22.86731 | 22816 ft | 395 kts | 310° |
| 2026-05-07 14:54 | 39.82936 | 22.84117 | 23246 ft | 398 kts | 310° |
| 2026-05-07 14:55 | 39.84848 | 22.81478 | 23656 ft | 401 kts | 310° |
| 2026-05-07 14:55 | 39.86767 | 22.78828 | 24011 ft | 404 kts | 310° |
| 2026-05-07 14:55 | 39.88649 | 22.76227 | 24376 ft | 406 kts | 310° |
| 2026-05-07 14:55 | 39.90644 | 22.73466 | 24765 ft | 408 kts | 310° |
| 2026-05-07 14:56 | 39.92593 | 22.70766 | 25106 ft | 410 kts | 310° |
| 2026-05-07 14:56 | 39.94530 | 22.68081 | 25446 ft | 412 kts | 310° |
| 2026-05-07 14:56 | 39.96501 | 22.65349 | 25785 ft | 414 kts | 310° |
| 2026-05-07 14:56 | 39.98482 | 22.62600 | 26138 ft | 416 kts | 310° |
| 2026-05-07 14:57 | 40.00472 | 22.59835 | 26479 ft | 419 kts | 310° |
| 2026-05-07 14:57 | 40.02468 | 22.57056 | 26825 ft | 421 kts | 309° |
| 2026-05-07 14:57 | 40.04476 | 22.54258 | 27165 ft | 423 kts | 309° |
| 2026-05-07 14:57 | 40.06494 | 22.51443 | 27489 ft | 425 kts | 309° |
| 2026-05-07 14:58 | 40.08519 | 22.48620 | 27792 ft | 427 kts | 309° |
| 2026-05-07 14:58 | 40.10554 | 22.45779 | 28108 ft | 429 kts | 309° |
| 2026-05-07 14:58 | 40.12592 | 22.42931 | 28547 ft | 427 kts | 309° |
| 2026-05-07 14:58 | 40.14618 | 22.40096 | 28943 ft | 426 kts | 309° |
| 2026-05-07 14:59 | 40.16640 | 22.37265 | 29269 ft | 427 kts | 309° |
| 2026-05-07 14:59 | 40.18644 | 22.34462 | 29579 ft | 428 kts | 309° |
| 2026-05-07 14:59 | 40.20679 | 22.31612 | 29821 ft | 431 kts | 309° |
| 2026-05-07 14:59 | 40.22739 | 22.28718 | 29985 ft | 436 kts | 309° |
| 2026-05-07 15:00 | 40.24813 | 22.25795 | 30114 ft | 436 kts | 309° |
| 2026-05-07 15:00 | 40.26862 | 22.22913 | 30134 ft | 430 kts | 309° |
| 2026-05-07 15:00 | 40.30922 | 22.17203 | 30141 ft | 427 kts | 309° |
| 2026-05-07 15:01 | 40.34966 | 22.11499 | 30148 ft | 425 kts | 309° |
| 2026-05-07 15:01 | 40.38958 | 22.05847 | 30150 ft | 421 kts | 309° |
| 2026-05-07 15:02 | 40.42931 | 22.00204 | 30155 ft | 420 kts | 309° |
| 2026-05-07 15:02 | 40.46876 | 21.94598 | 30146 ft | 420 kts | 309° |
| 2026-05-07 15:03 | 40.50853 | 21.88947 | 30115 ft | 423 kts | 309° |
| 2026-05-07 15:03 | 40.54864 | 21.83240 | 30106 ft | 426 kts | 309° |
| 2026-05-07 15:04 | 40.58890 | 21.77481 | 30126 ft | 427 kts | 309° |
| 2026-05-07 15:04 | 40.62882 | 21.71780 | 30156 ft | 424 kts | 309° |
| 2026-05-07 15:05 | 40.66867 | 21.66070 | 30152 ft | 422 kts | 309° |
| 2026-05-07 15:05 | 40.70830 | 21.60375 | 30155 ft | 421 kts | 309° |
| 2026-05-07 15:06 | 40.74784 | 21.54687 | 30154 ft | 420 kts | 309° |
| 2026-05-07 15:06 | 40.78726 | 21.49005 | 30151 ft | 419 kts | 309° |
| 2026-05-07 15:07 | 40.82658 | 21.43324 | 30145 ft | 419 kts | 309° |
| 2026-05-07 15:07 | 40.86587 | 21.37640 | 30132 ft | 418 kts | 309° |
| 2026-05-07 15:08 | 40.90513 | 21.31959 | 30128 ft | 418 kts | 309° |
| 2026-05-07 15:08 | 40.94432 | 21.26267 | 30132 ft | 418 kts | 309° |
| 2026-05-07 15:09 | 40.98321 | 21.20614 | 30136 ft | 418 kts | 309° |
| 2026-05-07 15:09 | 41.02224 | 21.14917 | 30136 ft | 418 kts | 309° |
| 2026-05-07 15:10 | 41.06125 | 21.09217 | 30155 ft | 417 kts | 308° |
| 2026-05-07 15:10 | 41.10012 | 21.03515 | 30137 ft | 416 kts | 308° |
| 2026-05-07 15:11 | 41.13901 | 20.97816 | 30126 ft | 416 kts | 308° |
| 2026-05-07 15:11 | 41.17786 | 20.92119 | 30121 ft | 416 kts | 308° |
| 2026-05-07 15:12 | 41.21661 | 20.86419 | 30126 ft | 416 kts | 308° |
| 2026-05-07 15:12 | 41.25512 | 20.80738 | 30129 ft | 416 kts | 308° |
| 2026-05-07 15:13 | 41.29378 | 20.75027 | 30156 ft | 414 kts | 308° |
| 2026-05-07 15:13 | 41.33223 | 20.69337 | 30168 ft | 413 kts | 308° |
| 2026-05-07 15:14 | 41.37066 | 20.63638 | 30133 ft | 414 kts | 308° |
| 2026-05-07 15:14 | 41.40916 | 20.57920 | 30103 ft | 414 kts | 308° |
| 2026-05-07 15:15 | 41.44730 | 20.52237 | 30091 ft | 414 kts | 308° |
| 2026-05-07 15:15 | 41.48567 | 20.46515 | 30093 ft | 414 kts | 308° |
| 2026-05-07 15:16 | 41.52396 | 20.40795 | 30104 ft | 413 kts | 308° |
| 2026-05-07 15:16 | 41.56208 | 20.35094 | 30104 ft | 411 kts | 308° |
| 2026-05-07 15:17 | 41.60006 | 20.29385 | 30095 ft | 410 kts | 308° |
| 2026-05-07 15:17 | 41.63805 | 20.23669 | 30084 ft | 412 kts | 308° |
| 2026-05-07 15:18 | 41.66966 | 20.18912 | 30073 ft | 412 kts | 308° |
| 2026-05-07 15:18 | 41.70782 | 20.13167 | 30069 ft | 413 kts | 308° |
| 2026-05-07 15:19 | 41.74591 | 20.07412 | 30077 ft | 412 kts | 308° |
| 2026-05-07 15:19 | 41.78389 | 20.01656 | 30078 ft | 412 kts | 308° |
| 2026-05-07 15:20 | 41.82157 | 19.95942 | 30081 ft | 411 kts | 308° |
| 2026-05-07 15:20 | 41.85941 | 19.90186 | 30075 ft | 411 kts | 308° |
| 2026-05-07 15:21 | 41.89721 | 19.84439 | 30080 ft | 411 kts | 308° |
| 2026-05-07 15:21 | 41.93505 | 19.78667 | 30077 ft | 412 kts | 308° |
| 2026-05-07 15:22 | 41.97281 | 19.72894 | 30080 ft | 411 kts | 308° |
| 2026-05-07 15:22 | 42.01053 | 19.67118 | 30080 ft | 411 kts | 308° |
| 2026-05-07 15:23 | 42.04816 | 19.61343 | 30075 ft | 410 kts | 308° |
| 2026-05-07 15:23 | 42.08573 | 19.55556 | 30075 ft | 410 kts | 308° |
| 2026-05-07 15:24 | 42.12323 | 19.49764 | 30073 ft | 410 kts | 308° |
| 2026-05-07 15:24 | 42.16077 | 19.43973 | 30102 ft | 410 kts | 308° |
| 2026-05-07 15:25 | 42.19830 | 19.38168 | 30083 ft | 411 kts | 307° |
| 2026-05-07 15:25 | 42.23118 | 19.31938 | 30073 ft | 406 kts | 294° |
| 2026-05-07 15:26 | 42.25100 | 19.24891 | 30068 ft | 404 kts | 288° |
| 2026-05-07 15:26 | 42.26983 | 19.17722 | 30078 ft | 404 kts | 288° |
| 2026-05-07 15:27 | 42.28872 | 19.10561 | 30078 ft | 404 kts | 288° |
| 2026-05-07 15:27 | 42.30742 | 19.03440 | 30075 ft | 404 kts | 287° |
| 2026-05-07 15:28 | 42.32618 | 18.96240 | 29699 ft | 408 kts | 287° |
| 2026-05-07 15:28 | 42.33559 | 18.92616 | 29422 ft | 408 kts | 287° |
| 2026-05-07 15:28 | 42.34498 | 18.89007 | 29143 ft | 406 kts | 287° |
| 2026-05-07 15:29 | 42.35433 | 18.85401 | 28870 ft | 406 kts | 287° |
| 2026-05-07 15:29 | 42.36362 | 18.81800 | 28595 ft | 405 kts | 287° |
| 2026-05-07 15:29 | 42.37287 | 18.78206 | 28335 ft | 403 kts | 287° |
| 2026-05-07 15:29 | 42.38209 | 18.74625 | 28085 ft | 403 kts | 287° |
| 2026-05-07 15:30 | 42.39127 | 18.71060 | 27654 ft | 398 kts | 287° |
| 2026-05-07 15:30 | 42.40029 | 18.67554 | 27100 ft | 393 kts | 287° |
| 2026-05-07 15:30 | 42.40922 | 18.64080 | 26546 ft | 389 kts | 287° |
| 2026-05-07 15:30 | 42.41805 | 18.60639 | 26006 ft | 385 kts | 286° |
| 2026-05-07 15:31 | 42.42677 | 18.57236 | 25469 ft | 381 kts | 286° |
| 2026-05-07 15:31 | 42.43540 | 18.53858 | 24942 ft | 377 kts | 286° |
| 2026-05-07 15:31 | 42.44395 | 18.50517 | 24418 ft | 374 kts | 287° |
| 2026-05-07 15:31 | 42.45486 | 18.47290 | 23802 ft | 379 kts | 296° |
| 2026-05-07 15:32 | 42.46941 | 18.44356 | 23145 ft | 381 kts | 301° |
| 2026-05-07 15:32 | 42.48162 | 18.41182 | 22102 ft | 382 kts | 284° |
| 2026-05-07 15:32 | 42.48629 | 18.37650 | 21363 ft | 379 kts | 272° |
| 2026-05-07 15:32 | 42.48871 | 18.34125 | 20940 ft | 373 kts | 273° |
| 2026-05-07 15:33 | 42.49121 | 18.30658 | 20513 ft | 367 kts | 273° |
| 2026-05-07 15:33 | 42.49372 | 18.27241 | 20060 ft | 362 kts | 273° |
| 2026-05-07 15:33 | 42.49616 | 18.23870 | 19639 ft | 357 kts | 273° |
| 2026-05-07 15:33 | 42.49853 | 18.20531 | 19267 ft | 352 kts | 273° |
| 2026-05-07 15:34 | 42.50080 | 18.17292 | 19146 ft | 339 kts | 273° |
| 2026-05-07 15:34 | 42.50296 | 18.14170 | 19026 ft | 327 kts | 272° |
| 2026-05-07 15:34 | 42.50528 | 18.11148 | 18780 ft | 320 kts | 277° |
| 2026-05-07 15:34 | 42.51262 | 18.08225 | 17869 ft | 338 kts | 291° |
| 2026-05-07 15:35 | 42.52299 | 18.05288 | 16807 ft | 353 kts | 292° |
| 2026-05-07 15:35 | 42.53385 | 18.02284 | 16232 ft | 354 kts | 293° |
| 2026-05-07 15:35 | 42.54471 | 17.99309 | 15788 ft | 350 kts | 293° |
| 2026-05-07 15:35 | 42.55547 | 17.96361 | 15334 ft | 348 kts | 293° |
| 2026-05-07 15:36 | 42.56611 | 17.93426 | 14863 ft | 345 kts | 292° |
| 2026-05-07 15:36 | 42.57660 | 17.90509 | 14407 ft | 343 kts | 292° |
| 2026-05-07 15:36 | 42.58697 | 17.87601 | 13940 ft | 341 kts | 292° |
| 2026-05-07 15:36 | 42.59726 | 17.84707 | 13438 ft | 339 kts | 292° |
| 2026-05-07 15:37 | 42.60746 | 17.81841 | 12973 ft | 336 kts | 292° |
| 2026-05-07 15:37 | 42.61756 | 17.79001 | 12502 ft | 332 kts | 292° |
| 2026-05-07 15:37 | 42.62794 | 17.76190 | 11953 ft | 332 kts | 294° |
| 2026-05-07 15:37 | 42.63869 | 17.73413 | 11430 ft | 332 kts | 295° |
| 2026-05-07 15:38 | 42.64997 | 17.70664 | 10849 ft | 335 kts | 301° |
| 2026-05-07 15:38 | 42.66693 | 17.68503 | 10456 ft | 335 kts | 328° |
| 2026-05-07 15:38 | 42.68834 | 17.67569 | 10321 ft | 317 kts | 352° |
| 2026-05-07 15:38 | 42.70979 | 17.67848 | 9968 ft | 309 kts | 18° |
| 2026-05-07 15:39 | 42.72905 | 17.69118 | 9816 ft | 308 kts | 27° |
| 2026-05-07 15:39 | 42.74627 | 17.70821 | 9624 ft | 309 kts | 48° |
| 2026-05-07 15:39 | 42.75680 | 17.73366 | 8960 ft | 311 kts | 79° |
| 2026-05-07 15:39 | 42.75778 | 17.76202 | 8442 ft | 295 kts | 104° |
| 2026-05-07 15:40 | 42.75074 | 17.78754 | 7777 ft | 286 kts | 122° |
| 2026-05-07 15:40 | 42.74142 | 17.81131 | 7141 ft | 284 kts | 122° |
| 2026-05-07 15:40 | 42.73215 | 17.83481 | 6570 ft | 280 kts | 122° |
| 2026-05-07 15:40 | 42.72301 | 17.85796 | 5940 ft | 276 kts | 122° |
| 2026-05-07 15:41 | 42.71392 | 17.88080 | 5336 ft | 272 kts | 122° |
| 2026-05-07 15:41 | 42.70568 | 17.90181 | 5129 ft | 254 kts | 122° |
| 2026-05-07 15:41 | 42.69805 | 17.92133 | 5012 ft | 236 kts | 122° |
| 2026-05-07 15:41 | 42.69055 | 17.94045 | 4907 ft | 231 kts | 122° |
| 2026-05-07 15:42 | 42.68300 | 17.95967 | 4807 ft | 230 kts | 121° |
| 2026-05-07 15:42 | 42.67550 | 17.97878 | 4706 ft | 228 kts | 121° |
| 2026-05-07 15:42 | 42.66816 | 17.99750 | 4568 ft | 222 kts | 122° |
| 2026-05-07 15:42 | 42.66093 | 18.01590 | 4310 ft | 220 kts | 122° |
| 2026-05-07 15:43 | 42.65370 | 18.03427 | 4008 ft | 221 kts | 121° |
| 2026-05-07 15:43 | 42.64647 | 18.05266 | 3733 ft | 221 kts | 121° |
| 2026-05-07 15:43 | 42.63923 | 18.07106 | 3440 ft | 221 kts | 120° |
| 2026-05-07 15:43 | 42.63200 | 18.08942 | 3148 ft | 220 kts | 120° |
| 2026-05-07 15:44 | 42.62493 | 18.10738 | 2854 ft | 210 kts | 120° |
| 2026-05-07 15:44 | 42.61824 | 18.12436 | 2583 ft | 198 kts | 120° |
| 2026-05-07 15:44 | 42.61197 | 18.14026 | 2365 ft | 182 kts | 120° |
| 2026-05-07 15:44 | 42.60653 | 18.15486 | 2163 ft | 166 kts | 117° |
| 2026-05-07 15:45 | 42.60175 | 18.16851 | 1913 ft | 156 kts | 118° |
| 2026-05-07 15:45 | 42.59697 | 18.18133 | 1698 ft | 148 kts | 119° |
| 2026-05-07 15:45 | 42.59191 | 18.19279 | 1518 ft | 138 kts | 122° |
| 2026-05-07 15:45 | 42.58730 | 18.20419 | 1266 ft | 138 kts | 120° |
| 2026-05-07 15:46 | 42.57825 | 18.22631 | 943 ft | 132 kts | 121° |
| 2026-05-07 15:46 | 42.57378 | 18.23730 | 739 ft | 134 kts | 119° |
| 2026-05-07 15:46 | 42.56930 | 18.24834 | 575 ft | 133 kts | 121° |
| 2026-05-07 15:47 | 42.56513 | 18.25875 | 535 ft | 110 kts | 118° |
| 2026-05-07 15:47 | 42.56243 | 18.26557 | 534 ft | 38 kts | 118° |
| 2026-05-07 15:47 | 42.56140 | 18.26579 | 534 ft | 10 kts | 242° |
| 2026-05-07 15:47 | 42.56109 | 18.26498 | 534 ft | 9 kts | 242° |
| 2026-05-07 15:48 | 42.56109 | 18.26422 | 534 ft | 8 kts | 295° |
| 2026-05-07 15:48 | 42.56132 | 18.26359 | 534 ft | 7 kts | 295° |
| 2026-05-07 15:48 | 42.56150 | 18.26305 | 534 ft | 6 kts | 285° |
| 2026-05-07 15:48 | 42.56132 | 18.26264 | 534 ft | 6 kts | 210° |
| 2026-05-07 15:49 | 42.56110 | 18.26249 | 534 ft | 0 kts | 207° |